Time;durP1;ratioP1;P1;durP2;ratioP2;P2;SDS_P1;SDS_P2;PMS_P1;PMS_P2;Temp;Humidity;BMP_temperature;BMP_pressure;BME280_temperature;BME280_humidity;BME280_pressure;Samples;Min_cycle;Max_cycle;Signal;HPM_P1;HPM_P2
2022/06/15 00:00:37;;;;;;;9.50;3.80;;;;;;;12.80;52.69;99419.91;104807;1288;98391;-69
2022/06/15 00:03:09;;;;;;;11.50;4.00;;;;;;;12.77;52.79;99421.40;104883;1288;108732;-69
2022/06/15 00:05:42;;;;;;;10.40;3.50;;;;;;;12.72;52.85;99424.10;104829;1288;99980;-70
2022/06/15 00:08:13;;;;;;;13.20;4.30;;;;;;;12.67;52.99;99423.58;104776;1288;99356;-70
2022/06/15 00:10:41;;;;;;;12.70;3.70;;;;;;;12.61;53.00;99423.29;104757;1288;113905;-71
2022/06/15 00:13:11;;;;;;;13.60;3.50;;;;;;;12.56;53.13;99421.36;104806;1288;99308;-69
2022/06/15 00:15:41;;;;;;;11.70;3.60;;;;;;;12.52;53.10;99424.88;104922;1288;108388;-70
2022/06/15 00:18:11;;;;;;;8.00;3.50;;;;;;;12.46;53.18;99425.64;104960;1288;99245;-68
2022/06/15 00:20:41;;;;;;;8.00;3.60;;;;;;;12.42;53.22;99426.56;104926;1288;99237;-71
2022/06/15 00:23:09;;;;;;;8.40;3.30;;;;;;;12.38;53.35;99423.81;104804;1288;112529;-68
2022/06/15 00:25:42;;;;;;;11.40;4.10;;;;;;;12.35;53.46;99424.21;104833;1288;99340;-69
2022/06/15 00:28:10;;;;;;;13.20;3.90;;;;;;;12.32;53.43;99425.27;104845;1287;108184;-68
2022/06/15 00:30:40;;;;;;;11.50;3.50;;;;;;;12.29;53.52;99427.30;104865;1287;99341;-68
2022/06/15 00:33:10;;;;;;;10.60;4.20;;;;;;;12.25;53.56;99427.23;104895;1288;99283;-68
2022/06/15 00:35:40;;;;;;;10.10;3.80;;;;;;;12.20;53.64;99427.76;104794;1288;113444;-68
2022/06/15 00:38:08;;;;;;;11.70;4.00;;;;;;;12.16;53.63;99422.59;104781;1287;99350;-68
2022/06/15 00:40:37;;;;;;;9.70;3.70;;;;;;;12.10;53.70;99425.14;104797;1287;108533;-67
2022/06/15 00:43:11;;;;;;;9.60;3.50;;;;;;;12.04;53.78;99426.64;104885;1287;99363;-67
2022/06/15 00:45:41;;;;;;;14.70;3.80;;;;;;;11.99;53.84;99427.14;104959;1288;96768;-69
2022/06/15 00:48:11;;;;;;;11.20;3.80;;;;;;;11.96;53.92;99426.13;104781;1287;113144;-68
2022/06/15 00:50:39;;;;;;;11.00;3.00;;;;;;;11.92;53.94;99427.13;104803;1288;96925;-71
2022/06/15 00:53:07;;;;;;;12.50;3.60;;;;;;;11.88;54.03;99426.48;104870;1287;108365;-69
2022/06/15 00:55:38;;;;;;;9.50;3.40;;;;;;;11.86;54.14;99430.72;104865;1287;99349;-68
2022/06/15 00:58:13;;;;;;;9.90;4.00;;;;;;;11.84;54.24;99436.17;104836;1288;99253;-67
2022/06/15 01:00:43;;;;;;;10.70;3.60;;;;;;;11.82;54.35;99434.39;104882;1290;112931;-71
2022/06/15 01:03:14;;;;;;;11.90;3.80;;;;;;;11.80;54.41;99434.52;104877;1290;99337;-69
2022/06/15 01:05:49;;;;;;;11.40;4.00;;;;;;;11.80;54.54;99437.91;104840;1290;108459;-69
2022/06/15 01:08:49;;;;;;;11.90;3.70;;;;;;;11.80;54.60;99441.86;104757;1290;99203;-68
2022/06/15 01:11:27;;;;;;;10.90;3.70;;;;;;;11.81;54.67;99435.21;104806;1290;98267;-69
2022/06/15 01:14:10;;;;;;;10.90;3.90;;;;;;;11.81;54.66;99436.21;104735;1289;112445;-70
2022/06/15 01:16:46;;;;;;;;;;;;;;;11.82;54.80;99435.48;104769;1290;99352;-67
2022/06/15 01:19:43;;;;;;;13.60;4.10;;;;;;;11.81;54.94;99436.24;104738;1291;107468;-70
2022/06/15 01:22:20;;;;;;;9.60;4.10;;;;;;;11.85;54.93;99439.14;104758;1288;99375;-71
2022/06/15 01:25:15;;;;;;;15.30;4.50;;;;;;;11.90;54.92;99439.69;104765;1288;98348;-69
2022/06/15 01:27:49;;;;;;;14.90;3.90;;;;;;;11.95;54.93;99435.25;104876;1288;112773;-68
2022/06/15 01:30:42;;;;;;;9.40;3.40;;;;;;;11.99;54.90;99438.86;104817;1288;99430;-67
2022/06/15 01:33:15;;;;;;;10.90;3.70;;;;;;;12.03;54.84;99438.75;104795;1288;108403;-65
2022/06/15 01:35:57;;;;;;;9.80;3.80;;;;;;;12.06;54.89;99439.83;104814;1288;99134;-70
2022/06/15 01:38:51;;;;;;;8.90;3.40;;;;;;;12.09;54.98;99438.86;104817;1288;99323;-69
2022/06/15 01:41:25;;;;;;;11.60;3.90;;;;;;;12.13;55.08;99437.91;104821;1288;115657;-68
2022/06/15 01:44:17;;;;;;;9.90;3.60;;;;;;;12.16;55.14;99435.23;104787;1288;99262;-66
2022/06/15 01:46:49;;;;;;;9.70;3.90;;;;;;;12.17;55.16;99439.69;104758;1288;107466;-66
2022/06/15 01:49:43;;;;;;;7.40;3.50;;;;;;;12.18;55.19;99439.98;104805;1288;99638;-67
2022/06/15 01:52:21;;;;;;;9.00;3.80;;;;;;;12.20;55.31;99445.36;104665;1290;97045;-66
2022/06/15 01:55:03;;;;;;;11.20;3.70;;;;;;;12.22;55.37;99446.66;104706;1290;111793;-65
2022/06/15 01:57:37;;;;;;;13.70;3.80;;;;;;;12.23;55.39;99439.49;104886;1288;99105;-65
2022/06/15 02:00:17;;;;;;;11.60;4.10;;;;;;;12.23;55.41;99440.00;104879;1287;107933;-66
2022/06/15 02:02:56;;;;;;;10.90;4.20;;;;;;;12.20;55.42;99443.58;104785;1288;99326;-68
2022/06/15 02:05:42;;;;;;;11.90;4.30;;;;;;;12.16;55.54;99447.66;104808;1288;97132;-68
2022/06/15 02:08:44;;;;;;;13.00;4.20;;;;;;;12.16;55.67;99445.47;104710;1290;113691;-68
2022/06/15 02:11:18;;;;;;;13.00;4.20;;;;;;;12.15;55.81;99450.71;104728;1288;99057;-68
2022/06/15 02:13:59;;;;;;;11.00;4.20;;;;;;;12.14;55.75;99452.95;104801;1290;106813;-66
2022/06/15 02:16:34;;;;;;;14.30;5.20;;;;;;;12.12;55.84;99455.36;104768;1290;96686;-67
2022/06/15 02:19:11;;;;;;;14.20;5.70;;;;;;;12.11;55.89;99458.99;104743;1290;99325;-69
2022/06/15 02:21:44;;;;;;;16.50;6.80;;;;;;;12.10;56.00;99456.27;104740;1289;112860;-67
2022/06/15 02:24:17;;;;;;;;;;;;;;;12.07;56.00;99456.25;104870;1290;99354;-66
2022/06/15 02:26:48;;;;;;;15.80;6.30;;;;;;;12.01;56.12;99460.21;104792;1290;107839;-66
2022/06/15 02:29:28;;;;;;;17.70;6.90;;;;;;;11.99;56.15;99458.78;104807;1290;99382;-68
2022/06/15 02:31:59;;;;;;;15.40;5.90;;;;;;;11.96;56.16;99462.17;104714;1290;96558;-68
2022/06/15 02:34:30;;;;;;;16.70;5.50;;;;;;;11.92;56.23;99466.35;104847;1288;113616;-68
2022/06/15 02:36:58;;;;;;;13.80;5.70;;;;;;;11.88;56.24;99462.73;104935;1288;99279;-68
2022/06/15 02:39:28;;;;;;;16.30;5.90;;;;;;;11.85;56.33;99462.78;104948;1288;109474;-68
2022/06/15 02:42:21;;;;;;;12.20;5.00;;;;;;;11.82;56.40;99466.89;104886;1288;99277;-68
2022/06/15 02:44:54;;;;;;;15.80;5.90;;;;;;;11.80;56.49;99467.42;104848;1290;99207;-67
2022/06/15 02:47:27;;;;;;;13.80;5.30;;;;;;;11.77;56.53;99463.86;104651;1290;113751;-67
2022/06/15 02:49:57;;;;;;;11.30;4.80;;;;;;;11.75;56.36;99462.80;104579;1291;98003;-69
2022/06/15 02:52:36;;;;;;;12.50;4.90;;;;;;;11.68;56.44;99462.94;104735;1290;108283;-69
2022/06/15 02:55:09;;;;;;;12.70;4.90;;;;;;;11.66;56.59;99463.94;104790;1289;99366;-68
2022/06/15 02:57:47;;;;;;;15.20;5.30;;;;;;;11.63;56.47;99468.92;104864;1290;99378;-70
2022/06/15 03:00:20;;;;;;;14.10;5.90;;;;;;;11.61;56.60;99471.60;104746;1290;112782;-68
2022/06/15 03:02:50;;;;;;;19.50;5.20;;;;;;;11.57;56.73;99471.85;104805;1289;99255;-67
2022/06/15 03:05:21;;;;;;;15.40;5.30;;;;;;;11.55;56.75;99472.34;104671;1290;108451;-67
2022/06/15 03:07:49;;;;;;;13.30;5.00;;;;;;;11.56;56.95;99473.38;104736;1290;97101;-68
2022/06/15 03:10:19;;;;;;;12.00;4.70;;;;;;;11.57;56.93;99479.30;104727;1290;96653;-68
2022/06/15 03:12:47;;;;;;;14.60;4.80;;;;;;;11.60;56.93;99478.57;104812;1289;113458;-69
2022/06/15 03:15:18;;;;;;;15.60;5.60;;;;;;;11.62;57.06;99481.46;104836;1290;99269;-66
2022/06/15 03:17:53;;;;;;;13.30;5.10;;;;;;;11.62;57.14;99480.53;104724;1289;109033;-69
2022/06/15 03:20:20;;;;;;;10.20;4.70;;;;;;;11.60;56.99;99481.38;104753;1290;96707;-68
2022/06/15 03:22:50;;;;;;;14.70;5.50;;;;;;;11.54;56.96;99477.77;104865;1290;99253;-68
2022/06/15 03:25:20;;;;;;;15.40;4.90;;;;;;;11.50;57.27;99481.98;104807;1290;113203;-67
2022/06/15 03:27:52;;;;;;;14.50;5.70;;;;;;;11.53;57.41;99482.11;104815;1290;99334;-67
2022/06/15 03:30:23;;;;;;;11.90;4.90;;;;;;;11.57;57.54;99484.14;104816;1289;107792;-68
2022/06/15 03:32:51;;;;;;;15.30;5.20;;;;;;;11.60;57.52;99490.64;104837;1290;99342;-68
2022/06/15 03:35:22;;;;;;;10.00;4.50;;;;;;;11.64;57.59;99490.58;104755;1290;99900;-68
2022/06/15 03:37:50;;;;;;;14.50;5.00;;;;;;;11.70;57.68;99489.80;104804;1290;112900;-67
2022/06/15 03:40:21;;;;;;;12.10;5.20;;;;;;;11.76;57.69;99487.04;104855;1290;99290;-69
2022/06/15 03:42:48;;;;;;;13.30;5.00;;;;;;;11.84;57.63;99492.54;104812;1290;108440;-67
2022/06/15 03:45:16;;;;;;;16.80;5.60;;;;;;;11.89;57.65;99487.53;104764;1290;99243;-67
2022/06/15 03:47:47;;;;;;;16.70;5.20;;;;;;;11.91;57.62;99492.71;104775;1289;96689;-66
2022/06/15 03:50:15;;;;;;;14.00;5.40;;;;;;;11.87;57.49;99491.25;104849;1290;113454;-67
2022/06/15 03:52:45;;;;;;;12.20;4.50;;;;;;;11.80;57.40;99492.80;104800;1289;99160;-68
2022/06/15 03:55:18;;;;;;;15.00;4.60;;;;;;;11.68;57.56;99492.39;104707;1290;108351;-68
2022/06/15 03:57:49;;;;;;;11.90;4.90;;;;;;;11.60;57.66;99491.33;104787;1288;99354;-68
2022/06/15 04:00:21;;;;;;;19.20;5.20;;;;;;;11.55;57.78;99489.58;102836;1288;2675383;-68
2022/06/15 04:02:53;;;;;;;12.50;4.80;;;;;;;11.51;57.81;99489.36;104727;1290;112801;-69
2022/06/15 04:05:27;;;;;;;15.00;5.50;;;;;;;11.49;58.17;99486.08;104802;1289;99282;-69
2022/06/15 04:10:44;;;;;;;14.20;5.40;;;;;;;11.52;58.21;99487.70;104719;1290;99254;-68
2022/06/15 04:13:14;;;;;;;15.90;5.40;;;;;;;11.51;58.17;99488.98;104823;1288;99243;-69
2022/06/15 04:15:44;;;;;;;14.00;5.50;;;;;;;11.52;58.54;99492.66;104743;1288;113102;-71
2022/06/15 04:18:12;;;;;;;13.30;5.20;;;;;;;11.54;58.49;99492.48;104734;1290;99393;-68
2022/06/15 04:20:42;;;;;;;16.70;6.10;;;;;;;11.56;58.74;99494.45;104465;1290;108315;-69
2022/06/15 04:23:16;;;;;;;13.80;5.10;;;;;;;11.62;59.05;99496.20;104651;1290;97860;-70
2022/06/15 04:25:51;;;;;;;15.60;5.40;;;;;;;11.69;59.16;99498.04;104706;1287;99259;-69
2022/06/15 04:28:23;;;;;;;11.70;4.60;;;;;;;11.76;59.25;99501.13;104824;1288;112881;-69
2022/06/15 04:30:51;;;;;;;13.80;5.80;;;;;;;11.81;59.24;99497.55;104767;1287;99283;-67
2022/06/15 04:33:23;;;;;;;12.10;5.30;;;;;;;11.87;59.30;99498.67;104777;1288;108439;-68
2022/06/15 04:35:53;;;;;;;16.10;5.80;;;;;;;11.94;59.33;99499.65;104840;1288;99322;-69
2022/06/15 04:38:24;;;;;;;14.50;5.00;;;;;;;12.00;59.38;99497.10;104824;1288;99224;-70
2022/06/15 04:40:52;;;;;;;13.70;5.40;;;;;;;12.07;59.48;99498.76;104382;1290;113377;-69
2022/06/15 04:43:20;;;;;;;12.40;4.80;;;;;;;12.14;59.37;99495.45;104715;1290;99074;-69
2022/06/15 04:45:48;;;;;;;12.70;4.70;;;;;;;12.20;59.31;99495.52;104573;1290;107765;-68
2022/06/15 04:48:16;;;;;;;16.10;5.00;;;;;;;12.25;59.32;99492.64;104684;1288;99289;-67
2022/06/15 04:50:46;;;;;;;13.50;4.90;;;;;;;12.30;59.27;99495.30;104891;1288;99295;-67
2022/06/15 04:53:16;;;;;;;14.30;5.30;;;;;;;12.35;59.33;99493.50;104979;1288;113515;-68
2022/06/15 04:55:45;;;;;;;17.30;5.40;;;;;;;12.42;59.30;99493.19;104707;1290;96766;-68
2022/06/15 04:58:15;;;;;;;17.40;5.80;;;;;;;12.48;59.40;99496.27;104716;1290;108522;-67
2022/06/15 05:00:43;;;;;;;15.90;5.60;;;;;;;12.56;59.25;99492.53;104731;1290;99357;-68
2022/06/15 05:03:12;;;;;;;15.60;5.10;;;;;;;12.62;59.28;99495.48;104782;1290;99352;-68
2022/06/15 05:05:43;;;;;;;15.00;5.60;;;;;;;12.67;59.29;99499.02;104765;1288;113809;-68
2022/06/15 05:08:11;;;;;;;17.40;5.70;;;;;;;12.72;59.36;99497.58;104758;1288;97112;-69
2022/06/15 05:10:41;;;;;;;23.10;6.70;;;;;;;12.78;59.38;99501.21;104627;1290;108490;-67
2022/06/15 05:13:11;;;;;;;16.80;5.70;;;;;;;12.89;59.42;99502.70;104772;1288;99252;-67
2022/06/15 05:15:39;;;;;;;13.30;5.20;;;;;;;12.99;59.36;99498.60;104999;1287;99379;-68
2022/06/15 05:18:08;;;;;;;20.10;6.30;;;;;;;13.07;59.47;99500.66;104646;1290;113319;-66
2022/06/15 05:20:41;;;;;;;16.00;5.70;;;;;;;13.16;59.52;99499.69;104667;1288;98142;-64
2022/06/15 05:23:16;;;;;;;18.70;6.10;;;;;;;13.27;59.42;99494.70;104520;1290;108462;-65
2022/06/15 05:25:44;;;;;;;15.70;6.30;;;;;;;13.38;59.52;99493.34;104751;1289;99907;-66
2022/06/15 05:28:14;;;;;;;15.30;5.50;;;;;;;13.45;59.49;99490.48;104794;1290;99278;-67
2022/06/15 05:30:43;;;;;;;18.00;5.60;;;;;;;13.52;59.26;99490.11;104727;1289;112802;-67
2022/06/15 05:33:12;;;;;;;14.40;5.20;;;;;;;13.57;59.19;99487.77;104792;1287;99290;-66
2022/06/15 05:35:39;;;;;;;13.10;5.40;;;;;;;13.64;59.24;99486.70;104700;1288;107778;-67
2022/06/15 05:38:10;;;;;;;14.90;5.70;;;;;;;13.72;59.16;99485.55;104790;1287;99280;-66
2022/06/15 05:40:40;;;;;;;16.10;5.20;;;;;;;13.81;59.13;99488.78;104699;1288;101153;-70
2022/06/15 05:43:10;;;;;;;14.10;4.50;;;;;;;13.90;59.08;99489.09;104819;1288;111408;-68
2022/06/15 05:45:40;;;;;;;16.20;4.50;;;;;;;13.99;59.05;99489.16;104756;1288;99368;-68
2022/06/15 05:48:10;;;;;;;11.60;4.50;;;;;;;14.08;58.97;99488.55;104700;1290;109445;-68
2022/06/15 05:50:40;;;;;;;16.10;4.60;;;;;;;14.21;59.12;99489.69;104662;1290;99325;-72
2022/06/15 05:53:11;;;;;;;19.00;4.70;;;;;;;14.33;59.06;99485.91;104762;1288;97765;-69
2022/06/15 05:55:39;;;;;;;15.00;4.70;;;;;;;14.44;58.91;99483.94;104848;1288;112773;-69
2022/06/15 05:58:07;;;;;;;14.40;4.20;;;;;;;14.54;59.02;99485.38;104664;1290;99345;-69
2022/06/15 06:00:38;;;;;;;12.80;4.10;;;;;;;14.62;58.95;99480.45;104901;1288;108394;-67
2022/06/15 06:03:07;;;;;;;12.20;4.20;;;;;;;14.69;58.90;99478.26;104807;1288;99353;-66
2022/06/15 06:05:36;;;;;;;13.40;4.30;;;;;;;14.80;58.91;99480.66;104844;1288;99303;-67
2022/06/15 06:08:07;;;;;;;12.70;3.70;;;;;;;14.91;58.94;99480.74;104845;1288;113866;-70
2022/06/15 06:10:34;;;;;;;11.00;3.50;;;;;;;15.02;58.69;99478.80;104938;1288;98973;-66
2022/06/15 06:13:02;;;;;;;14.20;3.60;;;;;;;15.12;58.73;99480.99;104784;1288;107382;-71
2022/06/15 06:15:32;;;;;;;12.60;3.40;;;;;;;15.22;58.54;99481.73;104930;1288;99293;-69
2022/06/15 06:18:03;;;;;;;9.50;3.30;;;;;;;15.34;58.46;99483.02;104571;1290;99268;-69
2022/06/15 06:20:31;;;;;;;11.80;3.60;;;;;;;15.42;58.30;99485.77;104764;1287;113275;-70
2022/06/15 06:22:59;;;;;;;12.40;3.30;;;;;;;15.54;58.31;99490.08;104807;1288;99138;-69
2022/06/15 06:25:32;;;;;;;12.60;3.20;;;;;;;15.64;58.13;99488.49;104530;1289;107956;-70
2022/06/15 06:28:00;;;;;;;9.80;3.60;;;;;;;15.77;58.16;99486.88;104728;1288;99341;-71
2022/06/15 06:30:28;;;;;;;12.30;3.60;;;;;;;15.92;58.20;99485.17;104725;1288;96647;-71
2022/06/15 06:32:56;;;;;;;13.00;3.70;;;;;;;16.12;58.15;99487.61;104708;1288;112518;-70
2022/06/15 06:35:23;;;;;;;11.10;3.90;;;;;;;16.31;58.14;99489.13;104545;1288;99208;-70
2022/06/15 06:37:52;;;;;;;9.10;3.10;;;;;;;16.50;58.06;99488.79;104478;1290;107920;-71
2022/06/15 06:40:23;;;;;;;12.50;3.50;;;;;;;16.71;57.92;99488.15;104739;1288;99405;-68
2022/06/15 06:42:51;;;;;;;6.40;2.90;;;;;;;16.94;57.85;99488.64;104520;1288;99652;-69
2022/06/15 06:45:21;;;;;;;10.60;3.00;;;;;;;17.20;57.94;99491.75;104736;1288;112463;-70
2022/06/15 06:47:48;;;;;;;13.30;3.20;;;;;;;17.54;57.74;99490.59;104784;1288;99090;-68
2022/06/15 06:50:23;;;;;;;11.50;3.10;;;;;;;17.90;57.67;99493.03;104444;1290;107576;-68
2022/06/15 06:52:53;;;;;;;9.70;3.20;;;;;;;18.27;57.80;99487.36;104581;1288;99206;-68
2022/06/15 06:55:26;;;;;;;13.20;2.60;;;;;;;18.71;57.55;99487.13;104621;1288;97633;-69
2022/06/15 06:57:59;;;;;;;11.40;3.70;;;;;;;19.26;57.49;99486.74;104582;1288;113414;-70
2022/06/15 07:00:30;;;;;;;13.60;2.90;;;;;;;20.58;56.46;99486.45;104596;1288;99357;-69
2022/06/15 07:03:04;;;;;;;9.70;2.90;;;;;;;22.49;54.96;99481.59;104738;1287;107827;-69
2022/06/15 07:05:35;;;;;;;14.80;2.80;;;;;;;24.41;54.44;99479.44;104612;1288;99243;-69
2022/06/15 07:08:04;;;;;;;13.10;2.80;;;;;;;26.21;54.60;99480.14;104672;1288;97849;-69
2022/06/15 07:10:32;;;;;;;10.40;2.50;;;;;;;27.68;54.22;99479.87;104655;1288;112673;-69
2022/06/15 07:13:01;;;;;;;13.80;3.10;;;;;;;28.03;55.00;99477.83;104391;1289;99073;-70
2022/06/15 07:15:29;;;;;;;6.10;2.20;;;;;;;28.86;53.74;99479.94;104081;1288;108402;-69
2022/06/15 07:17:58;;;;;;;7.90;2.60;;;;;;;29.80;53.03;99479.86;103923;1287;98098;-68
2022/06/15 07:20:30;;;;;;;13.40;2.50;;;;;;;30.62;51.95;99485.73;104496;1288;97703;-70
2022/06/15 07:22:58;;;;;;;8.50;2.50;;;;;;;30.56;53.14;99486.98;104216;1288;112603;-70
2022/06/15 07:25:29;;;;;;;9.70;2.50;;;;;;;29.70;53.11;99485.52;104086;1287;99278;-69
2022/06/15 07:27:57;;;;;;;11.30;2.60;;;;;;;28.98;52.98;99486.66;103867;1287;108402;-68
2022/06/15 07:30:27;;;;;;;7.70;2.70;;;;;;;28.88;52.16;99479.90;104375;1287;100912;-70
2022/06/15 07:32:56;;;;;;;10.70;2.70;;;;;;;29.45;51.04;99480.04;104194;1287;97789;-69
2022/06/15 07:35:29;;;;;;;12.60;3.40;;;;;;;29.12;50.68;99486.60;104063;1287;112764;-69
2022/06/15 07:37:58;;;;;;;14.20;3.20;;;;;;;29.48;49.97;99490.58;104280;1287;99604;-69
2022/06/15 07:40:49;;;;;;;9.90;2.90;;;;;;;29.96;48.92;99488.92;104244;1287;108476;-70
2022/06/15 07:43:17;;;;;;;14.90;3.60;;;;;;;29.34;49.30;99492.02;104211;1288;99333;-69
2022/06/15 07:45:47;;;;;;;8.80;2.60;;;;;;;29.58;48.33;99490.75;104818;1287;99235;-69
2022/06/15 07:51:01;;;;;;;11.90;3.10;;;;;;;28.38;48.70;99487.39;103896;1290;99567;-70
2022/06/15 07:53:30;;;;;;;8.00;2.70;;;;;;;27.69;48.34;99492.50;104698;1288;108512;-70
2022/06/15 07:55:58;;;;;;;6.10;2.30;;;;;;;26.95;47.68;99492.02;104576;1287;99452;-69
2022/06/15 07:58:26;;;;;;;11.30;3.30;;;;;;;26.28;47.52;99501.55;104789;1287;98074;-71
2022/06/15 08:00:54;;;;;;;12.10;3.30;;;;;;;25.73;47.35;99500.46;104825;1288;112782;-69
2022/06/15 08:03:21;;;;;;;12.80;3.10;;;;;;;25.27;47.07;99502.98;104699;1288;99239;-69
2022/06/15 08:05:50;;;;;;;12.00;2.80;;;;;;;24.78;46.55;99501.30;104430;1288;109421;-70
2022/06/15 08:08:21;;;;;;;11.40;2.40;;;;;;;24.81;46.04;99502.58;104728;1288;99093;-70
2022/06/15 08:10:51;;;;;;;13.60;2.90;;;;;;;25.58;45.48;99498.30;104781;1287;99533;-70
2022/06/15 08:13:20;;;;;;;9.40;2.70;;;;;;;26.14;44.90;99496.17;104708;1288;111333;-70
2022/06/15 08:15:50;;;;;;;8.00;2.30;;;;;;;27.19;44.54;99498.38;104801;1287;99234;-68
2022/06/15 08:18:26;;;;;;;10.10;2.80;;;;;;;27.25;44.58;99502.16;104729;1287;107850;-69
2022/06/15 08:20:59;;;;;;;11.60;2.90;;;;;;;26.49;44.74;99507.73;104713;1287;99411;-65
2022/06/15 08:23:33;;;;;;;11.80;2.90;;;;;;;25.79;44.78;99509.78;104835;1287;99206;-68
2022/06/15 08:26:08;;;;;;;9.50;2.30;;;;;;;25.21;44.62;99507.18;104724;1287;113455;-70
2022/06/15 08:28:40;;;;;;;11.10;2.80;;;;;;;24.83;44.01;99505.93;104608;1287;96711;-71
2022/06/15 08:31:08;;;;;;;9.50;2.80;;;;;;;24.55;44.04;99506.48;104708;1288;109563;-69
2022/06/15 08:33:36;;;;;;;6.20;2.40;;;;;;;24.17;43.83;99514.23;104825;1288;99335;-70
2022/06/15 08:36:07;;;;;;;8.60;2.00;;;;;;;24.11;43.42;99514.27;104658;1290;99261;-70
2022/06/15 08:38:35;;;;;;;6.10;2.20;;;;;;;24.05;43.07;99509.65;104766;1287;113347;-71
2022/06/15 08:41:09;;;;;;;9.00;1.80;;;;;;;24.14;43.15;99509.70;104782;1287;100028;-70
2022/06/15 08:44:15;;;;;;;8.60;2.00;;;;;;;24.83;42.63;99511.59;104566;1289;107845;-69
2022/06/15 08:46:56;;;;;;;6.40;2.20;;;;;;;25.00;42.87;99517.77;103867;1296;99346;-70
2022/06/15 08:49:45;;;;;;;7.50;1.90;;;;;;;24.91;42.87;99520.56;104633;1290;99345;-70
2022/06/15 08:52:40;;;;;;;3.90;1.60;;;;;;;24.49;42.39;99521.43;104757;1288;113556;-69
2022/06/15 08:55:19;;;;;;;4.60;1.90;;;;;;;24.01;42.13;99521.54;104426;1290;97510;-72
2022/06/15 08:58:02;;;;;;;8.90;2.10;;;;;;;23.46;42.09;99523.11;104730;1290;107973;-70
2022/06/15 09:00:37;;;;;;;7.80;2.30;;;;;;;23.11;42.16;99524.73;104729;1288;99331;-69
2022/06/15 09:03:37;;;;;;;6.60;2.60;;;;;;;22.82;41.93;99528.42;104809;1288;99149;-72
2022/06/15 09:06:24;;;;;;;11.70;3.30;;;;;;;22.24;41.59;99528.20;104812;1288;112897;-70
2022/06/15 09:09:15;;;;;;;7.70;2.50;;;;;;;22.03;41.60;99525.08;104900;1287;99834;-73
2022/06/15 09:15:13;;;;;;;6.10;2.30;;;;;;;21.65;41.49;99525.83;104901;1287;97988;-72
2022/06/15 09:17:43;;;;;;;7.80;2.90;;;;;;;21.54;41.52;99525.29;104787;1288;99227;-71
2022/06/15 09:20:27;;;;;;;7.80;2.20;;;;;;;21.39;41.30;99527.58;104859;1288;114241;-72
2022/06/15 09:23:05;;;;;;;11.80;2.80;;;;;;;21.17;41.28;99527.14;104910;1288;99329;-69
2022/06/15 09:25:41;;;;;;;4.00;2.10;;;;;;;20.96;41.03;99533.05;104878;1288;106457;-70
2022/06/15 09:28:20;;;;;;;7.50;2.20;;;;;;;21.19;41.04;99527.77;104630;1288;100041;-72
2022/06/15 09:30:59;;;;;;;4.70;2.20;;;;;;;22.02;40.99;99519.21;104920;1288;99331;-69
2022/06/15 09:33:37;;;;;;;7.70;2.30;;;;;;;22.70;40.62;99515.43;104802;1288;112449;-71
2022/06/15 09:36:17;;;;;;;5.00;2.30;;;;;;;23.19;40.61;99511.52;104869;1288;99281;-71
2022/06/15 09:38:45;;;;;;;5.80;2.20;;;;;;;23.65;41.02;99511.80;104881;1288;108939;-73
2022/06/15 09:41:23;;;;;;;4.60;2.40;;;;;;;23.85;41.05;99508.36;104949;1288;98459;-70
2022/06/15 09:44:28;;;;;;;5.80;2.40;;;;;;;23.62;40.60;99511.66;104871;1288;99227;-70
2022/06/15 09:47:33;;;;;;;6.50;2.40;;;;;;;23.29;40.51;99509.44;104900;1287;114169;-72
2022/06/15 09:50:26;;;;;;;7.30;2.50;;;;;;;23.00;40.44;99509.96;104859;1287;98600;-71
2022/06/15 09:53:00;;;;;;;7.10;2.50;;;;;;;22.60;40.22;99514.41;104804;1288;108501;-71
2022/06/15 09:55:37;;;;;;;8.40;2.80;;;;;;;22.48;40.38;99516.52;104818;1287;99350;-71
2022/06/15 09:58:35;;;;;;;5.50;2.60;;;;;;;22.57;39.86;99512.14;104771;1288;97837;-70
2022/06/15 10:01:03;;;;;;;6.70;2.50;;;;;;;22.63;39.66;99506.14;104847;1287;112723;-71
2022/06/15 10:03:36;;;;;;;9.10;2.80;;;;;;;22.72;40.16;99503.23;104689;1287;98083;-73
2022/06/15 10:06:37;;;;;;;7.00;2.90;;;;;;;22.85;40.38;99505.16;104810;1287;107758;-72
2022/06/15 10:09:09;;;;;;;6.90;2.70;;;;;;;22.95;39.95;99500.99;104789;1287;101350;-73
2022/06/15 10:11:46;;;;;;;5.10;2.40;;;;;;;22.83;39.95;99493.79;104762;1287;99284;-70
2022/06/15 10:14:32;;;;;;;10.60;3.30;;;;;;;22.75;39.94;99491.71;104884;1287;112828;-71
2022/06/15 10:17:18;;;;;;;7.20;3.40;;;;;;;22.60;39.51;99503.78;104862;1287;99972;-71
2022/06/15 10:19:50;;;;;;;8.40;3.40;;;;;;;22.34;39.49;99500.75;104834;1288;107846;-70
2022/06/15 10:22:27;;;;;;;3.90;2.60;;;;;;;22.16;39.56;99497.80;104923;1287;99272;-72
2022/06/15 10:24:58;;;;;;;6.50;3.50;;;;;;;21.99;39.28;99497.88;104949;1287;99266;-71
2022/06/15 10:27:37;;;;;;;5.80;2.90;;;;;;;21.79;39.40;99498.27;104827;1287;112749;-71
2022/06/15 10:30:07;;;;;;;7.70;3.40;;;;;;;21.56;38.59;99492.58;104590;1290;99290;-71
2022/06/15 10:32:59;;;;;;;6.60;3.20;;;;;;;21.38;39.37;99491.26;104841;1288;107986;-73
2022/06/15 10:35:31;;;;;;;8.00;3.30;;;;;;;21.34;39.26;99492.10;104863;1288;99322;-73
2022/06/15 10:38:07;;;;;;;10.30;3.40;;;;;;;21.30;39.27;99493.52;104791;1288;96754;-72
2022/06/15 10:40:39;;;;;;;8.40;3.50;;;;;;;21.35;39.55;99493.11;104853;1288;112884;-72
2022/06/15 10:43:12;;;;;;;7.00;3.30;;;;;;;21.42;39.47;99490.48;104872;1288;99321;-71
2022/06/15 10:45:55;;;;;;;7.10;3.00;;;;;;;21.48;39.48;99493.66;104884;1288;109578;-70
2022/06/15 10:48:35;;;;;;;8.30;3.50;;;;;;;21.50;39.36;99495.78;104829;1288;99260;-72
2022/06/15 10:51:10;;;;;;;7.60;3.30;;;;;;;21.51;39.47;99492.70;104864;1288;97979;-74
2022/06/15 10:53:52;;;;;;;4.60;3.00;;;;;;;21.51;39.45;99494.74;104849;1288;112908;-72
2022/06/15 11:02:39;;;;;;;13.30;3.50;;;;;;;21.30;39.20;99497.79;104289;1290;97137;-70
2022/06/15 11:05:08;;;;;;;7.50;3.20;;;;;;;21.25;39.09;99497.34;104701;1288;99332;-72
2022/06/15 11:07:44;;;;;;;6.20;3.00;;;;;;;21.22;39.02;99493.79;104880;1288;112816;-72
2022/06/15 11:10:28;;;;;;;7.40;3.10;;;;;;;21.24;38.99;99491.20;104771;1288;99309;-70
2022/06/15 11:13:28;;;;;;;4.60;2.80;;;;;;;21.32;39.15;99490.57;104837;1288;107871;-71
2022/06/15 11:19:03;;;;;;;8.50;3.10;;;;;;;21.44;39.08;99484.36;104745;1287;99242;-69
2022/06/15 11:21:40;;;;;;;4.20;2.80;;;;;;;21.43;39.06;99482.44;104651;1290;114039;-70
2022/06/15 11:24:25;;;;;;;10.30;3.10;;;;;;;21.50;39.21;99476.95;104891;1288;99248;-69
2022/06/15 11:26:59;;;;;;;4.80;3.20;;;;;;;21.62;39.04;99474.05;104720;1288;106916;-70
2022/06/15 11:29:30;;;;;;;7.20;3.40;;;;;;;21.65;38.87;99475.20;104676;1288;99381;-68
2022/06/15 11:32:20;;;;;;;8.10;3.20;;;;;;;21.61;38.77;99469.65;104648;1288;96683;-69
2022/06/15 11:35:21;;;;;;;6.00;2.80;;;;;;;21.46;38.90;99468.20;104690;1288;113548;-69
2022/06/15 11:38:19;;;;;;;6.20;2.70;;;;;;;21.34;38.87;99470.52;104768;1288;97665;-71
2022/06/15 11:40:56;;;;;;;7.50;2.80;;;;;;;21.31;38.88;99469.91;104628;1288;110781;-71
2022/06/15 11:43:33;;;;;;;8.20;3.20;;;;;;;21.29;38.79;99470.90;104792;1288;99484;-71
2022/06/15 11:46:18;;;;;;;9.30;3.30;;;;;;;21.27;38.74;99477.40;104886;1288;99048;-68
2022/06/15 11:48:57;;;;;;;6.90;3.10;;;;;;;21.19;38.48;99477.64;104861;1288;112834;-69
2022/06/15 11:51:57;;;;;;;8.10;2.60;;;;;;;21.07;38.57;99481.34;104877;1288;99385;-70
2022/06/15 11:54:38;;;;;;;6.40;2.90;;;;;;;21.05;38.62;99475.81;104798;1288;108479;-70
2022/06/15 11:57:25;;;;;;;4.70;2.50;;;;;;;21.10;38.80;99477.78;104824;1288;99137;-69
2022/06/15 12:00:21;;;;;;;4.60;2.20;;;;;;;21.11;38.48;99476.02;104793;1288;99265;-68
2022/06/15 12:02:58;;;;;;;5.90;2.60;;;;;;;21.06;38.58;99477.17;104900;1288;112901;-70
2022/06/15 12:05:38;;;;;;;7.10;2.90;;;;;;;20.99;38.43;99475.73;104944;1288;96646;-69
2022/06/15 12:08:40;;;;;;;4.00;2.40;;;;;;;20.90;38.16;99472.78;104881;1288;107929;-71